Time;durP1;ratioP1;P1;durP2;ratioP2;P2;SDS_P1;SDS_P2;PMS_P1;PMS_P2;Temp;Humidity;BMP_temperature;BMP_pressure;BME280_temperature;BME280_humidity;BME280_pressure;Samples;Min_cycle;Max_cycle;Signal;HPM_P1;HPM_P2
2023/05/07 00:01:32;;;;;;;;;0.00;0.00;;;;;;;;5036542;28;46003;-77
2023/05/07 00:03:57;;;;;;;;;2.00;0.00;;;;;;;;5036665;28;45280;-77
2023/05/07 00:06:23;;;;;;;;;1.00;1.00;;;;;;;;5036521;28;45435;-77
2023/05/07 00:08:48;;;;;;;;;0.25;0.25;;;;;;;;5036668;28;45274;-77
2023/05/07 00:11:13;;;;;;;;;1.67;1.00;;;;;;;;5036037;28;46740;-77
2023/05/07 00:13:38;;;;;;;;;0.00;0.00;;;;;;;;5036168;28;45409;-77
2023/05/07 00:16:04;;;;;;;;;2.67;1.00;;;;;;;;5036389;28;45478;-77
2023/05/07 00:18:29;;;;;;;;;1.00;1.00;;;;;;;;5036429;28;45290;-77
2023/05/07 00:20:54;;;;;;;;;0.25;0.25;;;;;;;;5036357;28;45464;-77
2023/05/07 00:23:20;;;;;;;;;0.00;0.00;;;;;;;;5036286;28;45255;-78
2023/05/07 00:25:45;;;;;;;;;0.00;0.00;;;;;;;;5035946;28;45419;-78
2023/05/07 00:28:10;;;;;;;;;0.00;0.00;;;;;;;;5035241;28;45580;-78
2023/05/07 00:30:35;;;;;;;;;0.33;0.33;;;;;;;;5036155;28;46056;-78
2023/05/07 00:33:01;;;;;;;;;0.00;0.00;;;;;;;;5036009;28;45365;-77
2023/05/07 00:35:26;;;;;;;;;0.67;0.67;;;;;;;;5036274;28;45373;-77
2023/05/07 00:37:51;;;;;;;;;2.00;1.00;;;;;;;;5035975;28;45497;-80
2023/05/07 00:40:16;;;;;;;;;1.67;0.67;;;;;;;;5035583;28;45392;-78
2023/05/07 00:42:41;;;;;;;;;1.00;1.00;;;;;;;;5035957;28;45523;-78
2023/05/07 00:45:07;;;;;;;;;0.00;0.00;;;;;;;;5036015;28;45410;-78
2023/05/07 00:47:33;;;;;;;;;0.75;0.75;;;;;;;;5035999;28;45410;-77
2023/05/07 00:49:58;;;;;;;;;1.00;1.00;;;;;;;;5035680;28;47098;-78
2023/05/07 00:52:25;;;;;;;;;1.75;0.50;;;;;;;;5035753;28;45331;-78
2023/05/07 00:54:51;;;;;;;;;0.50;0.50;;;;;;;;5035592;28;45400;-77
2023/05/07 00:57:16;;;;;;;;;0.25;0.00;;;;;;;;5035955;28;45321;-78
2023/05/07 00:59:41;;;;;;;;;2.00;1.00;;;;;;;;5035534;28;46666;-78
2023/05/07 01:02:07;;;;;;;;;1.00;1.00;;;;;;;;5035525;28;45479;-77
2023/05/07 01:04:32;;;;;;;;;1.00;1.00;;;;;;;;5035867;28;45439;-78
2023/05/07 01:06:58;;;;;;;;;1.00;1.00;;;;;;;;5035444;28;45452;-78
2023/05/07 01:09:25;;;;;;;;;1.00;1.00;;;;;;;;5034979;28;46346;-78
2023/05/07 01:11:51;;;;;;;;;1.00;1.00;;;;;;;;5035377;28;45628;-78
2023/05/07 01:14:16;;;;;;;;;3.75;1.00;;;;;;;;5035494;28;45511;-78
2023/05/07 01:16:42;;;;;;;;;2.75;1.25;;;;;;;;5035633;28;45409;-77
2023/05/07 01:19:08;;;;;;;;;1.00;1.00;;;;;;;;5035350;28;45442;-78
2023/05/07 01:21:34;;;;;;;;;0.75;0.75;;;;;;;;5035396;28;45851;-78
2023/05/07 01:24:00;;;;;;;;;2.25;1.75;;;;;;;;5035220;28;45458;-78
2023/05/07 01:26:25;;;;;;;;;2.25;1.00;;;;;;;;5035405;28;45282;-77
2023/05/07 01:28:50;;;;;;;;;0.00;0.00;;;;;;;;5035467;28;47264;-78
2023/05/07 01:31:16;;;;;;;;;1.00;0.00;;;;;;;;5035391;28;45334;-78
2023/05/07 01:33:43;;;;;;;;;1.00;1.00;;;;;;;;5035045;28;45291;-77
2023/05/07 01:36:10;;;;;;;;;0.50;0.50;;;;;;;;5035499;28;45305;-78
2023/05/07 01:38:37;;;;;;;;;0.00;0.00;;;;;;;;5034711;28;45974;-78
2023/05/07 01:41:02;;;;;;;;;2.00;0.00;;;;;;;;5037890;28;45605;-78
2023/05/07 01:43:28;;;;;;;;;0.50;0.50;;;;;;;;5020958;28;45541;-77
2023/05/07 01:45:54;;;;;;;;;0.50;0.00;;;;;;;;5038770;28;45380;-77
2023/05/07 01:48:20;;;;;;;;;0.00;0.00;;;;;;;;5038910;28;46278;-77
2023/05/07 01:50:46;;;;;;;;;0.00;0.00;;;;;;;;5038683;28;45394;-77
2023/05/07 01:53:11;;;;;;;;;1.50;0.00;;;;;;;;5038252;28;45563;-77
2023/05/07 01:55:39;;;;;;;;;1.00;0.00;;;;;;;;5038766;28;45277;-77
2023/05/07 01:58:05;;;;;;;;;0.00;0.00;;;;;;;;5038461;28;47110;-77
2023/05/07 02:00:30;;;;;;;;;1.00;0.00;;;;;;;;5038529;28;45443;-77
2023/05/07 02:02:56;;;;;;;;;1.00;0.00;;;;;;;;5038326;28;45366;-77
2023/05/07 02:05:21;;;;;;;;;0.00;0.00;;;;;;;;5038575;28;45940;-77
2023/05/07 02:07:46;;;;;;;;;1.00;0.00;;;;;;;;5038054;28;46210;-77
2023/05/07 02:10:11;;;;;;;;;0.00;0.00;;;;;;;;5038309;28;45350;-77
2023/05/07 02:12:37;;;;;;;;;0.00;0.00;;;;;;;;5038349;28;45287;-77
2023/05/07 02:15:02;;;;;;;;;0.00;0.00;;;;;;;;5038288;28;45297;-77
2023/05/07 02:17:27;;;;;;;;;0.00;0.00;;;;;;;;5038239;28;46377;-77
2023/05/07 02:19:52;;;;;;;;;0.00;0.00;;;;;;;;5038150;28;45346;-77
2023/05/07 02:22:18;;;;;;;;;0.00;0.00;;;;;;;;5037828;28;45329;-77
2023/05/07 02:24:43;;;;;;;;;0.67;0.00;;;;;;;;5038266;28;45489;-77
2023/05/07 02:27:08;;;;;;;;;0.00;0.00;;;;;;;;5037831;28;46361;-77
2023/05/07 02:29:33;;;;;;;;;0.33;0.00;;;;;;;;5038134;28;45341;-78
2023/05/07 02:31:58;;;;;;;;;1.00;0.00;;;;;;;;5038007;28;45467;-78
2023/05/07 02:34:24;;;;;;;;;0.00;0.00;;;;;;;;5038101;28;45466;-77
2023/05/07 02:36:49;;;;;;;;;0.00;0.00;;;;;;;;5037546;28;46978;-77
2023/05/07 02:39:15;;;;;;;;;0.00;0.00;;;;;;;;5037381;28;45496;-77
2023/05/07 02:41:40;;;;;;;;;0.00;0.00;;;;;;;;5037982;28;45403;-77
2023/05/07 02:44:05;;;;;;;;;0.00;0.00;;;;;;;;5038092;28;45403;-77
2023/05/07 02:46:31;;;;;;;;;0.50;0.00;;;;;;;;5037708;28;46003;-77
2023/05/07 02:48:56;;;;;;;;;0.75;0.75;;;;;;;;5037779;28;45292;-77
2023/05/07 02:51:22;;;;;;;;;1.00;1.00;;;;;;;;5036551;28;45527;-77
2023/05/07 02:53:47;;;;;;;;;0.75;0.00;;;;;;;;5037743;28;45334;-77
2023/05/07 02:56:12;;;;;;;;;0.33;0.00;;;;;;;;5037706;28;45482;-77
2023/05/07 02:58:39;;;;;;;;;1.00;0.00;;;;;;;;5037662;28;45400;-77
2023/05/07 03:01:04;;;;;;;;;0.50;0.00;;;;;;;;5037671;28;45350;-77
2023/05/07 03:03:29;;;;;;;;;2.00;0.00;;;;;;;;5037747;28;45287;-77
2023/05/07 03:05:55;;;;;;;;;0.00;0.00;;;;;;;;5037181;28;45437;-77
2023/05/07 03:08:20;;;;;;;;;0.00;0.00;;;;;;;;5037436;28;45453;-77
2023/05/07 03:10:46;;;;;;;;;1.00;0.00;;;;;;;;5037668;28;45453;-77
2023/05/07 03:13:11;;;;;;;;;0.00;0.00;;;;;;;;5037276;28;45763;-77
2023/05/07 03:15:36;;;;;;;;;1.00;1.00;;;;;;;;5037242;28;46141;-77
2023/05/07 03:18:01;;;;;;;;;0.00;0.00;;;;;;;;5037373;28;45392;-77
2023/05/07 03:20:26;;;;;;;;;1.33;0.00;;;;;;;;5037006;28;45353;-76
2023/05/07 03:22:52;;;;;;;;;1.00;1.00;;;;;;;;5037206;28;45508;-77
2023/05/07 03:25:17;;;;;;;;;0.33;0.00;;;;;;;;5037111;28;46103;-77
2023/05/07 03:27:42;;;;;;;;;3.00;1.00;;;;;;;;5037258;28;45524;-77
2023/05/07 03:30:08;;;;;;;;;0.00;0.00;;;;;;;;5037341;28;45351;-77
2023/05/07 03:32:33;;;;;;;;;0.25;0.25;;;;;;;;5037210;28;45364;-77
2023/05/07 03:34:59;;;;;;;;;0.00;0.00;;;;;;;;5036685;28;46380;-77
2023/05/07 03:37:24;;;;;;;;;3.33;1.00;;;;;;;;5037156;28;45442;-76
2023/05/07 03:39:49;;;;;;;;;1.00;0.00;;;;;;;;5037013;28;45441;-77
2023/05/07 03:42:14;;;;;;;;;0.25;0.25;;;;;;;;5037020;28;45369;-77
2023/05/07 03:44:40;;;;;;;;;1.00;0.00;;;;;;;;5036944;28;46107;-77
2023/05/07 03:47:05;;;;;;;;;0.00;0.00;;;;;;;;5036552;28;45341;-77
2023/05/07 03:49:30;;;;;;;;;1.00;0.00;;;;;;;;5036692;28;45400;-77
2023/05/07 03:51:55;;;;;;;;;0.00;0.00;;;;;;;;5036621;28;45645;-77
2023/05/07 03:54:20;;;;;;;;;0.00;0.00;;;;;;;;5036883;28;45589;-76
2023/05/07 03:56:46;;;;;;;;;0.00;0.00;;;;;;;;5036239;28;45306;-77
2023/05/07 03:59:13;;;;;;;;;0.00;0.00;;;;;;;;5036784;28;45428;-77
2023/05/07 04:01:38;;;;;;;;;0.00;0.00;;;;;;;;5036698;28;45320;-77
2023/05/07 04:04:04;;;;;;;;;1.00;0.00;;;;;;;;5035618;28;46114;-77
2023/05/07 04:06:29;;;;;;;;;0.00;0.00;;;;;;;;5036363;28;45429;-77
2023/05/07 04:08:54;;;;;;;;;0.33;0.00;;;;;;;;5036646;28;45365;-77
2023/05/07 04:11:20;;;;;;;;;0.00;0.00;;;;;;;;5036314;28;45389;-77
2023/05/07 04:13:45;;;;;;;;;0.00;0.00;;;;;;;;5036078;28;46410;-77
2023/05/07 04:16:10;;;;;;;;;0.00;0.00;;;;;;;;5036336;28;45354;-77
2023/05/07 04:18:35;;;;;;;;;0.33;0.00;;;;;;;;5036085;28;45478;-77
2023/05/07 04:21:01;;;;;;;;;1.00;0.00;;;;;;;;5036406;28;45479;-77
2023/05/07 04:23:27;;;;;;;;;0.00;0.00;;;;;;;;5035981;28;47331;-77
2023/05/07 04:25:52;;;;;;;;;1.00;0.00;;;;;;;;5036139;28;45670;-77
2023/05/07 04:28:18;;;;;;;;;0.50;0.00;;;;;;;;5036155;28;45446;-77
2023/05/07 04:30:43;;;;;;;;;1.25;0.00;;;;;;;;5036109;28;45372;-77
2023/05/07 04:33:08;;;;;;;;;0.00;0.00;;;;;;;;5035659;28;45587;-77
2023/05/07 04:35:33;;;;;;;;;0.00;0.00;;;;;;;;5035962;28;45485;-77
2023/05/07 04:37:58;;;;;;;;;1.00;0.00;;;;;;;;5035950;28;45359;-77
2023/05/07 04:40:23;;;;;;;;;3.00;0.00;;;;;;;;5036034;28;45404;-78
2023/05/07 04:42:49;;;;;;;;;2.00;0.00;;;;;;;;5035859;28;45557;-77
2023/05/07 04:45:15;;;;;;;;;0.00;0.00;;;;;;;;5035823;28;45317;-77
2023/05/07 04:47:40;;;;;;;;;0.00;0.00;;;;;;;;5035519;28;45377;-77
2023/05/07 04:50:06;;;;;;;;;0.00;0.00;;;;;;;;5036082;28;45472;-78
2023/05/07 04:52:31;;;;;;;;;0.00;0.00;;;;;;;;5035677;28;45278;-77
2023/05/07 04:54:58;;;;;;;;;0.00;0.00;;;;;;;;5035745;28;45413;-77
2023/05/07 04:57:24;;;;;;;;;1.00;0.00;;;;;;;;5035855;28;45340;-77
2023/05/07 04:59:49;;;;;;;;;1.00;0.00;;;;;;;;5035727;28;45334;-77
2023/05/07 05:02:14;;;;;;;;;0.00;0.00;;;;;;;;5035192;28;46515;-78
2023/05/07 05:04:39;;;;;;;;;0.00;0.00;;;;;;;;5035695;28;45286;-77
2023/05/07 05:07:05;;;;;;;;;0.00;0.00;;;;;;;;5035489;28;45436;-78
2023/05/07 05:09:30;;;;;;;;;0.00;0.00;;;;;;;;5035846;28;45357;-78
2023/05/07 05:11:55;;;;;;;;;1.00;0.00;;;;;;;;5035329;28;47078;-77
2023/05/07 05:14:20;;;;;;;;;0.00;0.00;;;;;;;;5036773;28;45280;-77
2023/05/07 05:16:46;;;;;;;;;0.00;0.00;;;;;;;;5041815;28;45338;-77
2023/05/07 05:19:11;;;;;;;;;1.00;0.00;;;;;;;;5042040;28;45312;-77
2023/05/07 05:21:36;;;;;;;;;0.00;0.00;;;;;;;;5042149;28;45488;-78
2023/05/07 05:24:01;;;;;;;;;1.00;0.00;;;;;;;;5042009;28;45461;-77
2023/05/07 05:26:26;;;;;;;;;0.00;0.00;;;;;;;;5042179;28;45466;-78
2023/05/07 05:28:51;;;;;;;;;0.00;0.00;;;;;;;;5042084;28;45277;-78
2023/05/07 05:31:17;;;;;;;;;0.00;0.00;;;;;;;;5041829;28;45301;-77
2023/05/07 05:33:42;;;;;;;;;0.00;0.00;;;;;;;;5042030;28;45404;-77
2023/05/07 05:36:09;;;;;;;;;0.67;0.00;;;;;;;;5042114;28;45491;-77
2023/05/07 05:38:34;;;;;;;;;0.00;0.00;;;;;;;;5041688;28;45401;-77
2023/05/07 05:40:59;;;;;;;;;0.00;0.00;;;;;;;;5041626;28;45731;-77
2023/05/07 05:43:25;;;;;;;;;0.00;0.00;;;;;;;;5041561;28;45447;-77
2023/05/07 05:45:50;;;;;;;;;0.00;0.00;;;;;;;;5041750;28;45432;-77
2023/05/07 05:48:15;;;;;;;;;0.00;0.00;;;;;;;;5041846;28;45364;-78
2023/05/07 05:50:41;;;;;;;;;0.00;0.00;;;;;;;;5041912;28;45603;-77
2023/05/07 05:53:07;;;;;;;;;0.00;0.00;;;;;;;;5041533;28;45675;-78
2023/05/07 05:55:32;;;;;;;;;0.00;0.00;;;;;;;;5041820;28;45551;-77
2023/05/07 05:57:57;;;;;;;;;0.00;0.00;;;;;;;;5041316;28;45478;-77
2023/05/07 06:00:23;;;;;;;;;0.00;0.00;;;;;;;;5041471;28;45372;-77
2023/05/07 06:02:48;;;;;;;;;0.00;0.00;;;;;;;;5041569;28;45460;-77
2023/05/07 06:05:13;;;;;;;;;0.00;0.00;;;;;;;;5041654;28;45325;-77
2023/05/07 06:07:39;;;;;;;;;0.00;0.00;;;;;;;;5041724;28;45486;-77
2023/05/07 06:10:04;;;;;;;;;0.33;0.00;;;;;;;;5041334;28;45868;-77
2023/05/07 06:12:29;;;;;;;;;0.00;0.00;;;;;;;;5040740;28;45448;-77
2023/05/07 06:14:55;;;;;;;;;1.00;1.00;;;;;;;;5041518;28;45475;-77
2023/05/07 06:17:20;;;;;;;;;0.00;0.00;;;;;;;;5023695;28;45444;-77
2023/05/07 06:19:45;;;;;;;;;0.00;0.00;;;;;;;;5041195;28;45444;-77
2023/05/07 06:22:10;;;;;;;;;0.33;0.33;;;;;;;;5041331;28;45391;-77
2023/05/07 06:24:35;;;;;;;;;1.00;1.00;;;;;;;;5041224;28;45416;-77
2023/05/07 06:27:00;;;;;;;;;0.33;0.33;;;;;;;;5038540;28;45382;-77
2023/05/07 06:29:26;;;;;;;;;1.00;1.00;;;;;;;;5037981;28;46326;-77
2023/05/07 06:31:54;;;;;;;;;1.33;0.00;;;;;;;;5037867;28;45467;-77
2023/05/07 06:34:19;;;;;;;;;0.25;0.00;;;;;;;;5037901;28;45390;-77
2023/05/07 06:36:44;;;;;;;;;0.00;0.00;;;;;;;;5037960;28;45353;-77
2023/05/07 06:39:10;;;;;;;;;0.67;0.00;;;;;;;;5037350;28;46732;-77
2023/05/07 06:41:35;;;;;;;;;0.00;0.00;;;;;;;;5037388;28;45405;-77
2023/05/07 06:44:01;;;;;;;;;0.00;0.00;;;;;;;;5037632;28;45481;-77
2023/05/07 06:46:27;;;;;;;;;0.75;0.00;;;;;;;;5037569;28;45578;-77
2023/05/07 06:48:52;;;;;;;;;0.00;0.00;;;;;;;;5037702;28;46185;-77
2023/05/07 06:51:17;;;;;;;;;0.00;0.00;;;;;;;;5037401;28;45416;-77
2023/05/07 06:53:42;;;;;;;;;0.00;0.00;;;;;;;;5037685;28;45258;-76
2023/05/07 06:56:08;;;;;;;;;0.00;0.00;;;;;;;;5037152;28;45437;-77
2023/05/07 06:58:33;;;;;;;;;0.00;0.00;;;;;;;;5037392;28;45420;-77
2023/05/07 07:00:58;;;;;;;;;0.00;0.00;;;;;;;;5037355;28;45499;-79
2023/05/07 07:03:23;;;;;;;;;0.33;0.00;;;;;;;;5037276;28;45247;-77
2023/05/07 07:05:51;;;;;;;;;0.00;0.00;;;;;;;;5037483;28;45260;-77
2023/05/07 07:08:17;;;;;;;;;1.00;0.00;;;;;;;;5037131;28;46719;-78
2023/05/07 07:10:43;;;;;;;;;0.00;0.00;;;;;;;;5036876;28;45463;-77
2023/05/07 07:13:08;;;;;;;;;0.00;0.00;;;;;;;;5037152;28;45391;-78
2023/05/07 07:15:33;;;;;;;;;0.00;0.00;;;;;;;;5037373;28;45321;-78
2023/05/07 07:17:58;;;;;;;;;0.00;0.00;;;;;;;;5037220;28;46496;-78
2023/05/07 07:20:23;;;;;;;;;0.00;0.00;;;;;;;;5037104;28;45501;-77
2023/05/07 07:22:48;;;;;;;;;1.00;0.00;;;;;;;;5037268;28;45400;-77
2023/05/07 07:25:14;;;;;;;;;1.00;0.00;;;;;;;;5036853;28;45452;-77
2023/05/07 07:27:39;;;;;;;;;0.00;0.00;;;;;;;;5036964;28;46582;-77
2023/05/07 07:30:07;;;;;;;;;0.75;0.00;;;;;;;;5037003;28;45371;-77
2023/05/07 07:32:33;;;;;;;;;0.75;0.00;;;;;;;;5036952;28;45328;-77
2023/05/07 07:34:58;;;;;;;;;0.25;0.00;;;;;;;;5036929;28;45585;-77
2023/05/07 07:37:25;;;;;;;;;1.00;0.00;;;;;;;;5036344;28;46875;-77
2023/05/07 07:39:50;;;;;;;;;0.00;0.00;;;;;;;;5036268;28;45419;-77
2023/05/07 07:42:15;;;;;;;;;0.00;0.00;;;;;;;;5036922;28;45196;-77
2023/05/07 07:44:40;;;;;;;;;0.00;0.00;;;;;;;;5037215;28;45336;-77
2023/05/07 07:47:06;;;;;;;;;0.00;0.00;;;;;;;;5036540;28;46143;-77
2023/05/07 07:49:31;;;;;;;;;0.00;0.00;;;;;;;;5036873;28;45271;-79
2023/05/07 07:51:56;;;;;;;;;0.00;0.00;;;;;;;;5037010;28;45314;-79
2023/05/07 07:54:21;;;;;;;;;1.00;0.00;;;;;;;;5036602;28;45511;-79
2023/05/07 07:56:46;;;;;;;;;1.00;0.00;;;;;;;;5036693;28;45386;-79
2023/05/07 07:59:13;;;;;;;;;0.00;0.00;;;;;;;;5036552;28;45348;-77
2023/05/07 08:01:38;;;;;;;;;0.00;0.00;;;;;;;;5036480;28;45452;-78
2023/05/07 08:04:05;;;;;;;;;0.00;0.00;;;;;;;;5036510;28;45466;-78
2023/05/07 08:06:30;;;;;;;;;1.00;0.00;;;;;;;;5036528;28;46621;-78
2023/05/07 08:08:55;;;;;;;;;0.00;0.00;;;;;;;;5036284;28;45357;-79
2023/05/07 08:11:21;;;;;;;;;1.00;1.00;;;;;;;;5036905;28;45324;-78
2023/05/07 08:13:46;;;;;;;;;0.00;0.00;;;;;;;;5036437;28;45349;-78
2023/05/07 08:16:11;;;;;;;;;0.00;0.00;;;;;;;;5036357;28;46381;-78
2023/05/07 08:18:37;;;;;;;;;1.25;0.00;;;;;;;;5036572;28;45206;-78
2023/05/07 08:21:02;;;;;;;;;0.50;0.00;;;;;;;;5036567;28;45247;-78
2023/05/07 08:23:27;;;;;;;;;0.00;0.00;;;;;;;;5036110;28;45560;-79
2023/05/07 08:25:53;;;;;;;;;0.00;0.00;;;;;;;;5036393;28;47111;-78
2023/05/07 08:28:19;;;;;;;;;0.00;0.00;;;;;;;;5036072;28;45358;-78
2023/05/07 08:30:44;;;;;;;;;0.50;0.00;;;;;;;;5036491;28;45342;-78
2023/05/07 08:33:09;;;;;;;;;0.00;0.00;;;;;;;;5036330;28;45420;-78
2023/05/07 08:35:34;;;;;;;;;0.00;0.00;;;;;;;;5036393;28;45309;-77
2023/05/07 08:38:00;;;;;;;;;0.00;0.00;;;;;;;;5035645;28;45435;-78
2023/05/07 08:40:26;;;;;;;;;0.00;0.00;;;;;;;;5036088;28;45261;-77
2023/05/07 08:42:52;;;;;;;;;0.00;0.00;;;;;;;;5036281;28;45243;-78
2023/05/07 08:45:19;;;;;;;;;0.00;0.00;;;;;;;;5036035;28;47750;-77
2023/05/07 08:47:46;;;;;;;;;0.00;0.00;;;;;;;;5036079;28;45375;-78
2023/05/07 08:50:11;;;;;;;;;0.00;0.00;;;;;;;;5035150;28;45317;-78
2023/05/07 08:52:37;;;;;;;;;2.00;0.00;;;;;;;;5035583;28;45363;-77
2023/05/07 08:55:03;;;;;;;;;2.00;0.00;;;;;;;;5036026;28;46544;-78
2023/05/07 08:57:28;;;;;;;;;1.00;0.00;;;;;;;;5036001;28;45409;-78
2023/05/07 08:59:53;;;;;;;;;0.00;0.00;;;;;;;;5035483;28;45365;-78
2023/05/07 09:02:18;;;;;;;;;0.67;0.00;;;;;;;;5035807;28;45388;-78
2023/05/07 09:04:43;;;;;;;;;0.00;0.00;;;;;;;;5035728;28;47035;-77
2023/05/07 09:07:09;;;;;;;;;0.00;0.00;;;;;;;;5035341;28;45340;-78
2023/05/07 09:09:34;;;;;;;;;0.00;0.00;;;;;;;;5036125;28;45310;-77
2023/05/07 09:11:59;;;;;;;;;1.33;0.00;;;;;;;;5035624;28;45479;-77
2023/05/07 09:14:25;;;;;;;;;0.00;0.00;;;;;;;;5035576;28;46307;-78
2023/05/07 09:16:51;;;;;;;;;0.00;0.00;;;;;;;;5035749;28;45264;-78
2023/05/07 09:19:22;;;;;;;;;0.75;0.00;;;;;;;;5035753;28;45503;-77
2023/05/07 09:21:47;;;;;;;;;0.00;0.00;;;;;;;;5035454;28;45349;-77
2023/05/07 09:24:15;;;;;;;;;0.00;0.00;;;;;;;;5035677;28;46725;-78
2023/05/07 09:26:40;;;;;;;;;0.25;0.00;;;;;;;;5017769;28;45285;-78
2023/05/07 09:29:05;;;;;;;;;0.00;0.00;;;;;;;;5035670;28;45343;-78
2023/05/07 09:31:31;;;;;;;;;0.00;0.00;;;;;;;;5017687;28;45550;-78
2023/05/07 09:33:57;;;;;;;;;1.00;1.00;;;;;;;;5034353;28;45357;-78
2023/05/07 09:36:22;;;;;;;;;0.00;0.00;;;;;;;;5035244;28;45329;-78
2023/05/07 09:38:49;;;;;;;;;0.00;0.00;;;;;;;;5035445;28;45393;-78
2023/05/07 09:41:14;;;;;;;;;1.00;0.75;;;;;;;;5035401;28;45419;-78
2023/05/07 09:43:40;;;;;;;;;0.00;0.00;;;;;;;;5035375;28;47631;-78
2023/05/07 09:46:07;;;;;;;;;0.00;0.00;;;;;;;;5035386;28;45747;-78
2023/05/07 09:48:35;;;;;;;;;0.50;0.50;;;;;;;;5035612;28;45402;-78
2023/05/07 09:51:01;;;;;;;;;1.00;1.00;;;;;;;;5035044;28;45504;-78
2023/05/07 09:53:28;;;;;;;;;1.50;0.75;;;;;;;;5035291;28;46736;-78
2023/05/07 09:55:53;;;;;;;;;1.00;1.00;;;;;;;;5035183;28;45827;-78
2023/05/07 09:58:20;;;;;;;;;1.67;1.67;;;;;;;;5035486;28;45352;-78
2023/05/07 10:00:45;;;;;;;;;1.00;1.00;;;;;;;;5036129;28;45508;-78
2023/05/07 10:03:11;;;;;;;;;1.00;1.00;;;;;;;;5038353;28;46368;-78
2023/05/07 10:05:37;;;;;;;;;0.00;0.00;;;;;;;;5038403;28;45737;-78
2023/05/07 10:08:02;;;;;;;;;0.00;0.00;;;;;;;;5038902;28;45385;-78
2023/05/07 10:10:29;;;;;;;;;0.00;0.00;;;;;;;;5038734;28;45432;-78
2023/05/07 10:12:54;;;;;;;;;2.00;0.75;;;;;;;;5020568;28;46375;-78
2023/05/07 10:15:19;;;;;;;;;2.00;1.00;;;;;;;;5020439;28;45423;-78
2023/05/07 10:17:44;;;;;;;;;1.00;1.00;;;;;;;;5038456;28;45417;-78
2023/05/07 10:20:10;;;;;;;;;0.75;0.75;;;;;;;;5038195;28;45421;-78
2023/05/07 10:22:42;;;;;;;;;1.00;0.00;;;;;;;;5038237;28;45337;-78
2023/05/07 10:25:16;;;;;;;;;1.25;1.00;;;;;;;;5038211;28;45333;-78
2023/05/07 10:27:42;;;;;;;;;1.00;1.00;;;;;;;;5038431;28;45416;-78
2023/05/07 10:30:10;;;;;;;;;0.75;0.75;;;;;;;;5038367;28;45580;-78
2023/05/07 10:32:47;;;;;;;;;2.50;1.00;;;;;;;;5037955;28;45456;-78
2023/05/07 10:35:25;;;;;;;;;1.00;0.00;;;;;;;;5037822;28;45443;-78
2023/05/07 10:37:50;;;;;;;;;3.75;1.00;;;;;;;;5037989;28;45452;-78
2023/05/07 10:40:17;;;;;;;;;3.50;2.00;;;;;;;;5020058;28;45385;-78
2023/05/07 10:42:59;;;;;;;;;4.50;3.00;;;;;;;;5038121;28;46473;-78
2023/05/07 10:45:24;;;;;;;;;1.00;1.00;;;;;;;;5038073;28;45400;-78
2023/05/07 10:48:10;;;;;;;;;2.00;2.00;;;;;;;;5038080;28;45437;-78
2023/05/07 10:50:36;;;;;;;;;4.50;3.00;;;;;;;;5037033;28;45682;-78
2023/05/07 10:53:16;;;;;;;;;2.00;2.00;;;;;;;;5037622;28;47070;-78
2023/05/07 10:55:41;;;;;;;;;1.00;1.00;;;;;;;;5019930;28;46329;-78
2023/05/07 10:58:21;;;;;;;;;1.00;1.00;;;;;;;;5038065;28;45328;-78
2023/05/07 11:00:47;;;;;;;;;3.75;1.50;;;;;;;;5037733;28;45343;-78
2023/05/07 11:03:14;;;;;;;;;3.00;2.00;;;;;;;;5037339;28;46110;-78
2023/05/07 11:05:40;;;;;;;;;1.50;1.00;;;;;;;;5037741;28;45274;-78
2023/05/07 11:08:05;;;;;;;;;3.00;1.75;;;;;;;;5037873;28;45294;-78
2023/05/07 11:10:50;;;;;;;;;1.00;1.00;;;;;;;;5037741;28;45290;-78
2023/05/07 11:13:16;;;;;;;;;1.50;1.00;;;;;;;;5036389;28;45454;-78
2023/05/07 11:15:43;;;;;;;;;3.75;2.00;;;;;;;;5037535;28;45285;-78
2023/05/07 11:18:09;;;;;;;;;1.25;1.25;;;;;;;;5037219;28;45389;-78
2023/05/07 11:20:43;;;;;;;;;2.25;1.50;;;;;;;;5037360;28;45398;-77
2023/05/07 11:23:28;;;;;;;;;2.75;1.50;;;;;;;;5037277;28;45506;-78
2023/05/07 11:25:58;;;;;;;;;2.00;2.00;;;;;;;;5037181;28;45913;-78
2023/05/07 11:28:23;;;;;;;;;2.00;2.00;;;;;;;;5037461;28;45295;-78
2023/05/07 11:30:49;;;;;;;;;1.00;1.00;;;;;;;;5037341;28;45358;-78
2023/05/07 11:33:16;;;;;;;;;2.00;2.00;;;;;;;;5036696;28;47144;-78
2023/05/07 11:35:42;;;;;;;;;2.25;2.00;;;;;;;;5037142;28;45385;-78
2023/05/07 11:38:07;;;;;;;;;2.00;2.00;;;;;;;;5037167;28;45594;-78
2023/05/07 11:40:32;;;;;;;;;2.75;2.00;;;;;;;;5037177;28;45383;-78
2023/05/07 11:42:57;;;;;;;;;4.00;3.00;;;;;;;;5037038;28;45364;-78
2023/05/07 11:45:25;;;;;;;;;5.00;2.00;;;;;;;;5037095;28;45304;-78
2023/05/07 11:47:50;;;;;;;;;5.50;3.00;;;;;;;;5036590;28;45369;-78
2023/05/07 11:50:15;;;;;;;;;4.00;1.67;;;;;;;;5037120;28;45669;-78
2023/05/07 11:52:49;;;;;;;;;3.75;2.00;;;;;;;;5036855;28;45507;-78
2023/05/07 11:55:18;;;;;;;;;4.50;2.25;;;;;;;;5036907;28;45674;-78
2023/05/07 11:57:44;;;;;;;;;3.50;2.00;;;;;;;;5037027;28;45290;-78
2023/05/07 12:00:09;;;;;;;;;5.00;3.00;;;;;;;;5036806;28;45523;-78
2023/05/07 12:02:35;;;;;;;;;2.75;2.25;;;;;;;;5036205;28;45413;-78
2023/05/07 12:05:00;;;;;;;;;2.50;1.00;;;;;;;;5036805;28;45426;-78
2023/05/07 12:07:25;;;;;;;;;1.67;1.67;;;;;;;;5036941;28;45250;-78
2023/05/07 12:09:51;;;;;;;;;2.00;1.00;;;;;;;;5036775;28;45336;-78
2023/05/07 12:12:17;;;;;;;;;1.75;1.75;;;;;;;;5036329;28;45381;-78
2023/05/07 12:14:43;;;;;;;;;2.00;2.00;;;;;;;;5036635;28;45368;-78
2023/05/07 12:17:09;;;;;;;;;3.50;1.75;;;;;;;;5036180;28;45355;-78
2023/05/07 12:19:34;;;;;;;;;6.25;3.00;;;;;;;;5036535;28;45346;-78
2023/05/07 12:22:01;;;;;;;;;4.00;2.00;;;;;;;;5036336;28;45380;-78
2023/05/07 12:24:26;;;;;;;;;2.00;2.00;;;;;;;;5036339;28;45421;-78
2023/05/07 12:26:51;;;;;;;;;2.00;2.00;;;;;;;;5036635;28;45408;-78
2023/05/07 12:29:16;;;;;;;;;3.00;1.33;;;;;;;;5036167;28;45345;-78
2023/05/07 12:31:42;;;;;;;;;2.00;2.00;;;;;;;;5035940;28;46435;-78
2023/05/07 12:34:07;;;;;;;;;3.00;2.00;;;;;;;;5036163;28;45378;-78
2023/05/07 12:36:39;;;;;;;;;3.25;2.50;;;;;;;;5036274;28;45447;-78
2023/05/07 12:39:11;;;;;;;;;3.00;2.00;;;;;;;;5036161;28;45341;-78
2023/05/07 12:41:53;;;;;;;;;2.00;2.00;;;;;;;;5035878;28;46703;-78
2023/05/07 12:44:18;;;;;;;;;2.25;2.00;;;;;;;;5035685;28;45768;-78
2023/05/07 12:46:43;;;;;;;;;3.00;1.67;;;;;;;;5036473;28;45432;-78
2023/05/07 12:49:09;;;;;;;;;3.00;3.00;;;;;;;;5036183;28;45385;-78
2023/05/07 12:51:35;;;;;;;;;1.00;1.00;;;;;;;;5035920;28;46381;-78
2023/05/07 12:54:00;;;;;;;;;4.00;2.00;;;;;;;;5035895;28;45401;-78
2023/05/07 12:56:25;;;;;;;;;4.50;1.75;;;;;;;;5036108;28;45352;-78
2023/05/07 12:58:50;;;;;;;;;5.00;3.00;;;;;;;;5035747;28;45266;-78
2023/05/07 13:01:18;;;;;;;;;2.00;2.00;;;;;;;;5035783;28;45413;-77
2023/05/07 13:03:47;;;;;;;;;3.50;2.00;;;;;;;;5035757;28;45820;-77
2023/05/07 13:06:13;;;;;;;;;4.50;3.00;;;;;;;;5035953;28;45392;-78
2023/05/07 13:08:44;;;;;;;;;2.00;2.00;;;;;;;;5035944;28;45496;-78
2023/05/07 13:11:10;;;;;;;;;0.25;0.25;;;;;;;;5035570;28;45598;-79
2023/05/07 13:13:37;;;;;;;;;2.50;1.00;;;;;;;;5035348;28;45360;-78
2023/05/07 13:16:02;;;;;;;;;1.00;1.00;;;;;;;;5035811;28;45334;-78
2023/05/07 13:18:29;;;;;;;;;1.00;1.00;;;;;;;;5035681;28;45572;-78
2023/05/07 13:20:55;;;;;;;;;1.50;1.00;;;;;;;;5035310;28;46619;-78
2023/05/07 13:23:20;;;;;;;;;1.00;1.00;;;;;;;;5035560;28;45397;-79
2023/05/07 13:25:45;;;;;;;;;0.00;0.00;;;;;;;;5035728;28;45395;-79
2023/05/07 13:28:10;;;;;;;;;0.00;0.00;;;;;;;;5035374;28;45378;-78
2023/05/07 13:30:36;;;;;;;;;2.33;0.00;;;;;;;;5035455;28;45680;-78
2023/05/07 13:33:01;;;;;;;;;1.00;0.00;;;;;;;;5035514;28;45376;-79
2023/05/07 13:35:26;;;;;;;;;0.75;0.75;;;;;;;;5035913;28;45358;-78
2023/05/07 13:37:52;;;;;;;;;1.67;1.00;;;;;;;;5038994;28;45215;-79
2023/05/07 13:40:17;;;;;;;;;1.00;1.00;;;;;;;;5038889;28;46405;-79
2023/05/07 13:42:42;;;;;;;;;2.00;0.25;;;;;;;;5038397;28;45433;-79
2023/05/07 13:45:08;;;;;;;;;3.00;1.33;;;;;;;;5039087;28;45371;-79
2023/05/07 13:47:33;;;;;;;;;1.25;1.00;;;;;;;;5039022;28;45409;-79
2023/05/07 13:49:58;;;;;;;;;4.00;1.00;;;;;;;;5038844;28;46535;-79
2023/05/07 13:52:23;;;;;;;;;0.00;0.00;;;;;;;;5038877;28;45445;-79
2023/05/07 13:54:49;;;;;;;;;4.00;2.00;;;;;;;;5038798;28;45291;-79
2023/05/07 13:57:14;;;;;;;;;2.00;1.00;;;;;;;;5038410;28;45274;-79
2023/05/07 13:59:40;;;;;;;;;7.00;2.00;;;;;;;;5038409;28;46186;-79
2023/05/07 14:02:05;;;;;;;;;2.50;2.50;;;;;;;;5038547;28;45968;-79
2023/05/07 14:04:31;;;;;;;;;3.00;3.00;;;;;;;;5038658;28;45515;-79
2023/05/07 14:06:56;;;;;;;;;3.00;2.00;;;;;;;;5038613;28;45353;-79
2023/05/07 14:09:21;;;;;;;;;5.33;3.67;;;;;;;;5038577;28;45472;-79
2023/05/07 14:11:47;;;;;;;;;3.67;3.00;;;;;;;;5038141;28;45361;-79
2023/05/07 14:14:12;;;;;;;;;4.25;3.00;;;;;;;;5038506;28;45344;-79
2023/05/07 14:16:37;;;;;;;;;6.00;3.25;;;;;;;;5038519;28;45307;-79
2023/05/07 14:19:03;;;;;;;;;3.67;2.00;;;;;;;;5038313;28;45358;-79
2023/05/07 14:21:28;;;;;;;;;4.33;2.00;;;;;;;;5038108;28;45337;-79
2023/05/07 14:23:53;;;;;;;;;6.00;2.00;;;;;;;;5038489;28;45333;-79
2023/05/07 14:26:19;;;;;;;;;4.00;2.00;;;;;;;;5037920;28;45539;-79
2023/05/07 14:28:46;;;;;;;;;3.25;3.00;;;;;;;;5038054;28;46575;-82
2023/05/07 14:31:11;;;;;;;;;1.00;1.00;;;;;;;;5038047;28;45725;-83
2023/05/07 14:33:36;;;;;;;;;2.00;2.00;;;;;;;;5038288;28;45245;-82
2023/05/07 14:36:02;;;;;;;;;2.33;1.00;;;;;;;;5038300;28;45404;-82